Terminal Aerodrome Forecast
Issued by NWS

Home | Current Version | Previous Version | Text Only | Print | Product List | Glossary On
Versions: 1 2 3 4 5 6 7 8 9 10 11 12 13 14 15
000
FTUS43 KGRR 301700
TAFLAN
TAF
KLAN 301735Z 3018/3118 21013G21KT P6SM VCTS SCT025CB BKN040
      TEMPO 3018/3020 BKN025CB
     FM302100 22014G22KT 5SM -TSRA OVC040CB
     FM302315 22012KT 5SM -TSRA BR OVC025CB
     FM310300 22006KT 3SM BR OVC015
     FM311100 24005KT 2SM BR BKN015
     FM311500 25006KT P6SM BKN025=

USA.gov is the U.S. government's official web portal to all federal, state and local government web resources and services.